createdAt,value
2022-08-22T00:00:42.885Z,100393.56
2022-08-22T00:02:58.998Z,100412.31
2022-08-22T00:03:00.023Z,100317.44
2022-08-22T00:03:02.937Z,100398.69
2022-08-22T00:03:22.585Z,100389.28
2022-08-22T00:05:58.347Z,100390.84
2022-08-22T00:08:55.611Z,100384.50
2022-08-22T00:11:39.430Z,100388.81
2022-08-22T00:14:19.397Z,100386.19
2022-08-22T00:17:06.337Z,100389.69
2022-08-22T00:19:52.043Z,100388.00
2022-08-22T00:22:45.331Z,100382.41
2022-08-22T00:25:26.395Z,100380.97
2022-08-22T00:28:06.095Z,100371.31
2022-08-22T00:30:43.542Z,100380.63
2022-08-22T00:33:30.794Z,100384.44
2022-08-22T00:36:26.603Z,100374.28
2022-08-22T00:39:06.178Z,100370.84
2022-08-22T00:42:14.667Z,100371.44
2022-08-22T00:44:51.972Z,100374.16
2022-08-22T00:47:46.187Z,100371.31
2022-08-22T00:50:49.642Z,100368.56
2022-08-22T00:53:31.740Z,100372.59
2022-08-22T00:56:26.308Z,100365.81
2022-08-22T00:59:18.026Z,100364.84
2022-08-22T01:02:28.686Z,100359.84
2022-08-22T01:05:07.621Z,100361.47
2022-08-22T01:07:45.601Z,100356.63
2022-08-22T01:10:24.389Z,100358.75
2022-08-22T01:13:15.680Z,100358.16
2022-08-22T01:15:43.920Z,100356.97
2022-08-22T01:18:32.592Z,100356.75
2022-08-22T01:20:59.372Z,100355.41
2022-08-22T01:23:47.188Z,100343.38
2022-08-22T01:26:38.342Z,100338.94
2022-08-22T01:29:28.270Z,100340.03
2022-08-22T01:32:20.586Z,100344.91
2022-08-22T01:35:05.643Z,100344.78
2022-08-22T01:37:59.029Z,100338.00
2022-08-22T01:40:34.765Z,100340.75
2022-08-22T01:43:17.511Z,100345.63
2022-08-22T01:45:55.965Z,100333.81
2022-08-22T01:48:53.727Z,100327.50
2022-08-22T01:51:32.398Z,100333.72
2022-08-22T01:54:12.949Z,100337.66
2022-08-22T01:56:45.650Z,100335.97
2022-08-22T01:59:28.903Z,100333.13
2022-08-22T02:02:18.564Z,100330.75
2022-08-22T02:04:48.060Z,100321.06
2022-08-22T02:07:39.981Z,100326.81
2022-08-22T02:10:43.660Z,100312.84
2022-08-22T02:13:25.215Z,100319.75
2022-08-22T02:16:17.909Z,100311.53
2022-08-22T02:18:58.275Z,100317.38
2022-08-22T02:21:46.088Z,100320.38
2022-08-22T02:24:24.720Z,100316.06
2022-08-22T02:27:06.224Z,100315.44
2022-08-22T02:29:44.629Z,100306.63
2022-08-22T02:32:11.012Z,100319.16
2022-08-22T02:35:38.782Z,100310.56
2022-08-22T02:38:08.117Z,100311.16
2022-08-22T02:40:40.199Z,100316.91
2022-08-22T02:43:21.712Z,100315.59
2022-08-22T02:45:56.006Z,100312.00
2022-08-22T02:48:27.704Z,100315.22
2022-08-22T02:50:59.439Z,100307.91
2022-08-22T02:53:47.525Z,100313.16
2022-08-22T02:56:24.484Z,100310.53
2022-08-22T02:58:59.335Z,100313.72
2022-08-22T03:01:29.824Z,100308.94
2022-08-22T03:04:24.343Z,100307.50
2022-08-22T03:07:21.853Z,100308.06
2022-08-22T03:10:10.296Z,100311.66
2022-08-22T03:12:59.497Z,100305.59
2022-08-22T03:15:38.016Z,100298.06
2022-08-22T03:18:26.336Z,100291.53
2022-08-22T03:20:59.959Z,100292.56
2022-08-22T03:23:32.222Z,100291.97
2022-08-22T03:26:18.996Z,100294.81
2022-08-22T03:28:58.998Z,100288.94
2022-08-22T03:31:28.984Z,100293.66
2022-08-22T03:34:25.159Z,100291.78
2022-08-22T03:37:42.913Z,100288.44
2022-08-22T03:40:46.485Z,100291.88
2022-08-22T03:43:22.229Z,100298.13
2022-08-22T03:46:25.830Z,100292.41
2022-08-22T03:49:40.031Z,100301.47
2022-08-22T03:52:21.509Z,100311.22
2022-08-22T03:55:09.747Z,100308.25
2022-08-22T03:57:36.129Z,100299.81
2022-08-22T04:00:13.106Z,100305.38
2022-08-22T04:03:07.722Z,100308.97
2022-08-22T04:05:54.269Z,100307.44
2022-08-22T04:08:44.818Z,100306.44
2022-08-22T04:11:41.357Z,100313.97
2022-08-22T04:14:16.841Z,100310.94
2022-08-22T04:17:04.247Z,100308.53
2022-08-22T04:19:30.767Z,100319.94
2022-08-22T04:22:28.789Z,100312.91
2022-08-22T04:25:17.262Z,100310.78
2022-08-22T04:28:07.298Z,100317.34
2022-08-22T04:30:42.899Z,100319.81
2022-08-22T04:33:12.271Z,100314.56
2022-08-22T04:35:51.820Z,100311.59
2022-08-22T04:38:30.926Z,100320.78
2022-08-22T04:41:04.595Z,100311.28
2022-08-22T04:43:46.910Z,100316.91
2022-08-22T04:46:26.308Z,100313.34
2022-08-22T04:49:12.650Z,100321.16
2022-08-22T04:52:02.476Z,100322.84
2022-08-22T04:54:54.655Z,100321.94
2022-08-22T04:57:39.111Z,100324.38
2022-08-22T05:00:09.036Z,100331.13
2022-08-22T05:02:40.170Z,100331.78
2022-08-22T05:05:15.799Z,100336.66
2022-08-22T05:07:49.194Z,100327.47
2022-08-22T05:10:36.399Z,100338.16
2022-08-22T05:13:09.607Z,100338.16
2022-08-22T05:15:41.334Z,100345.41
2022-08-22T05:18:14.341Z,100343.44
2022-08-22T05:20:45.584Z,100347.16
2022-08-22T05:23:41.557Z,100357.78
2022-08-22T05:26:10.994Z,100350.84
2022-08-22T05:28:43.263Z,100348.16
2022-08-22T05:31:14.985Z,100363.06
2022-08-22T05:33:46.705Z,100352.13
2022-08-22T05:36:23.078Z,100362.22
2022-08-22T05:39:04.847Z,100362.19
2022-08-22T05:41:36.851Z,100350.91
2022-08-22T05:44:04.946Z,100357.44
2022-08-22T05:46:44.527Z,100358.91
2022-08-22T05:49:30.882Z,100350.00
2022-08-22T05:52:23.696Z,100357.56
2022-08-22T05:55:01.696Z,100356.91
2022-08-22T05:57:38.312Z,100364.06
2022-08-22T06:00:12.605Z,100368.41
2022-08-22T06:03:38.466Z,100365.00
2022-08-22T06:06:14.378Z,100372.75
2022-08-22T06:09:06.927Z,100370.75
2022-08-22T06:12:00.201Z,100371.94
2022-08-22T06:14:35.790Z,100376.47
2022-08-22T06:17:11.696Z,100386.56
2022-08-22T06:19:42.822Z,100378.81
2022-08-22T06:22:10.274Z,100388.19
2022-08-22T06:24:41.048Z,100382.13
2022-08-22T06:27:12.809Z,100374.94
2022-08-22T06:29:44.380Z,100381.75
2022-08-22T06:32:44.361Z,100382.63
2022-08-22T06:35:22.340Z,100382.31
2022-08-22T06:37:51.802Z,100383.72
2022-08-22T06:40:19.003Z,100386.41
2022-08-22T06:42:51.765Z,100390.75
2022-08-22T06:45:32.502Z,100387.00
2022-08-22T06:48:05.006Z,100386.25
2022-08-22T06:50:42.657Z,100389.63
2022-08-22T06:53:12.062Z,100381.78
2022-08-22T06:55:42.989Z,100397.41
2022-08-22T06:58:17.219Z,100392.50
2022-08-22T07:00:51.522Z,100409.41
2022-08-22T07:03:35.122Z,100395.38
2022-08-22T07:06:03.260Z,100405.38
2022-08-22T07:08:37.183Z,100404.94
2022-08-22T07:11:11.769Z,100403.03
2022-08-22T07:13:42.944Z,100399.16
2022-08-22T07:16:10.913Z,100400.38
2022-08-22T07:18:49.898Z,100402.31
2022-08-22T07:21:41.281Z,100396.72
2022-08-22T07:24:10.193Z,100405.06
2022-08-22T07:26:47.263Z,100391.88
2022-08-22T07:29:24.053Z,100395.66
2022-08-22T07:32:12.191Z,100398.28
2022-08-22T07:34:57.036Z,100400.88
2022-08-22T07:37:38.808Z,100402.75
2022-08-22T07:40:11.395Z,100395.56
2022-08-22T07:42:51.967Z,100394.56
2022-08-22T07:45:40.679Z,100397.41
2022-08-22T07:48:26.608Z,100386.56
2022-08-22T07:51:15.926Z,100387.69
2022-08-22T07:53:47.456Z,100394.03
2022-08-22T07:56:29.381Z,100400.69
2022-08-22T07:59:05.745Z,100391.41
2022-08-22T08:01:37.347Z,100398.34
2022-08-22T08:04:08.838Z,100391.25
2022-08-22T08:06:35.816Z,100394.28
2022-08-22T08:09:03.167Z,100392.91
2022-08-22T08:11:39.821Z,100392.56
2022-08-22T08:14:08.804Z,100379.34
2022-08-22T08:16:47.669Z,100396.28
2022-08-22T08:19:16.863Z,100391.63
2022-08-22T08:21:49.849Z,100384.91
2022-08-22T08:24:22.296Z,100384.38
2022-08-22T08:27:15.671Z,100395.81
2022-08-22T08:29:58.857Z,100399.44
2022-08-22T08:32:31.252Z,100394.38
2022-08-22T08:34:59.397Z,100382.94
2022-08-22T08:37:47.395Z,100391.94
2022-08-22T08:40:26.555Z,100395.75
2022-08-22T08:43:27.966Z,100397.31
2022-08-22T08:45:59.155Z,100383.19
2022-08-22T08:49:00.687Z,100395.38
2022-08-22T08:51:54.520Z,100400.63
2022-08-22T08:54:39.959Z,100392.22
2022-08-22T08:57:16.493Z,100396.06
2022-08-22T09:00:15.921Z,100396.66
2022-08-22T09:02:45.384Z,100386.09
2022-08-22T09:05:40.489Z,100381.72
2022-08-22T09:08:19.116Z,100383.13
2022-08-22T09:10:58.195Z,100384.34
2022-08-22T09:13:53.310Z,100383.34
2022-08-22T09:16:22.603Z,100384.59
2022-08-22T09:19:34.741Z,100370.06
2022-08-22T09:22:05.448Z,100372.06
2022-08-22T09:24:59.800Z,100371.34
2022-08-22T09:27:45.602Z,100365.31
2022-08-22T09:30:28.578Z,100374.19
2022-08-22T09:33:14.808Z,100368.69
2022-08-22T09:36:00.958Z,100362.53
2022-08-22T09:39:05.904Z,100362.88
2022-08-22T09:42:08.870Z,100366.16
2022-08-22T09:45:00.240Z,100358.28
2022-08-22T09:47:34.375Z,100337.81
2022-08-22T09:50:36.546Z,100357.06
2022-08-22T09:53:31.992Z,100357.59
2022-08-22T09:56:18.792Z,100352.25
2022-08-22T09:59:16.794Z,100350.47
2022-08-22T10:01:57.577Z,100348.72
2022-08-22T10:04:45.249Z,100347.72
2022-08-22T10:07:30.270Z,100345.06
2022-08-22T10:10:26.175Z,100345.41
2022-08-22T10:13:04.023Z,100340.09
2022-08-22T10:15:45.967Z,100343.00
2022-08-22T10:18:52.689Z,100340.19
2022-08-22T10:21:30.991Z,100344.09
2022-08-22T10:24:25.785Z,100326.47
2022-08-22T10:27:07.547Z,100327.44
2022-08-22T10:29:51.526Z,100328.50
2022-08-22T10:33:06.428Z,100324.66
2022-08-22T10:36:05.110Z,100326.59
2022-08-22T10:38:46.421Z,100327.09
2022-08-22T10:41:51.697Z,100329.25
2022-08-22T10:44:49.613Z,100319.84
2022-08-22T10:47:26.729Z,100326.25
2022-08-22T10:50:08.695Z,100317.59
2022-08-22T10:52:51.417Z,100313.16
2022-08-22T10:55:27.402Z,100317.44
2022-08-22T10:58:12.734Z,100303.59
2022-08-22T11:00:50.715Z,100310.72
2022-08-22T11:03:28.190Z,100284.22
2022-08-22T11:06:00.316Z,100292.69
2022-08-22T11:08:47.839Z,100297.00
2022-08-22T11:11:20.266Z,100307.69
2022-08-22T11:14:21.954Z,100294.84
2022-08-22T11:17:27.942Z,100290.34
2022-08-22T11:20:16.595Z,100292.56
2022-08-22T11:22:46.054Z,100289.66
2022-08-22T11:25:41.219Z,100282.81
2022-08-22T11:28:30.130Z,100287.41
2022-08-22T11:31:23.313Z,100281.34
2022-08-22T11:34:09.321Z,100283.53
2022-08-22T11:36:51.423Z,100280.56
2022-08-22T11:39:34.765Z,100276.94
2022-08-22T11:42:31.296Z,100271.72
2022-08-22T11:45:01.481Z,100278.28
2022-08-22T11:47:33.012Z,100273.81
2022-08-22T11:50:02.305Z,100273.53
2022-08-22T11:52:52.118Z,100264.44
2022-08-22T11:55:30.814Z,100266.75
2022-08-22T11:58:15.800Z,100265.97
2022-08-22T12:01:18.498Z,100251.19
2022-08-22T12:04:17.904Z,100246.88
2022-08-22T12:07:13.626Z,100245.84
2022-08-22T12:10:02.914Z,100240.06
2022-08-22T12:12:55.450Z,100245.03
2022-08-22T12:15:24.499Z,100242.09
2022-08-22T12:17:55.741Z,100240.69
2022-08-22T12:20:46.477Z,100233.38
2022-08-22T12:23:49.687Z,100238.50
2022-08-22T12:26:37.904Z,100234.03
2022-08-22T12:29:34.012Z,100227.53
2022-08-22T12:32:15.360Z,100231.66
2022-08-22T12:35:01.012Z,100229.09
2022-08-22T12:37:56.819Z,100229.28
2022-08-22T12:40:47.709Z,100219.56
2022-08-22T12:43:24.735Z,100220.81
2022-08-22T12:46:18.234Z,100215.47
2022-08-22T12:49:09.761Z,100221.66
2022-08-22T12:52:09.321Z,100215.59
2022-08-22T12:57:24.587Z,100215.53
2022-08-22T13:00:22.984Z,100213.66
2022-08-22T13:02:55.500Z,100209.50
2022-08-22T13:05:26.462Z,100202.59
2022-08-22T13:08:04.288Z,100209.56
2022-08-22T13:10:47.872Z,100206.81
2022-08-22T13:13:36.482Z,100206.28
2022-08-22T13:16:13.453Z,100206.19
2022-08-22T13:18:46.377Z,100191.28
2022-08-22T13:21:16.648Z,100175.06
2022-08-22T13:23:54.776Z,100183.50
2022-08-22T13:26:33.035Z,100191.84
2022-08-22T13:32:01.016Z,100173.50
2022-08-22T13:34:38.406Z,100181.69
2022-08-22T13:37:15.037Z,100168.53
2022-08-22T13:39:47.086Z,100181.97
2022-08-22T13:42:30.045Z,100180.97
2022-08-22T13:45:04.615Z,100166.50
2022-08-22T13:47:39.740Z,100174.28
2022-08-22T13:50:14.740Z,100165.56
2022-08-22T13:52:52.499Z,100157.22
2022-08-22T13:55:37.067Z,100169.00
2022-08-22T13:58:06.720Z,100165.19
2022-08-22T14:01:18.336Z,100162.25
2022-08-22T14:04:34.703Z,100160.81
2022-08-22T14:07:06.056Z,100156.31
2022-08-22T14:09:43.154Z,100149.44
2022-08-22T14:12:21.090Z,100160.16
2022-08-22T14:14:57.115Z,100149.78
2022-08-22T14:17:33.848Z,100147.72
2022-08-22T14:20:11.114Z,100139.72
2022-08-22T14:22:42.700Z,100154.81
2022-08-22T14:25:19.319Z,100146.25
2022-08-22T14:27:52.688Z,100148.25
2022-08-22T14:30:24.414Z,100137.84
2022-08-22T14:33:34.554Z,100142.53
2022-08-22T14:36:13.276Z,100146.59
2022-08-22T14:38:47.134Z,100142.28
2022-08-22T14:41:56.377Z,100134.44
2022-08-22T14:44:36.708Z,100135.13
2022-08-22T14:47:34.492Z,100132.31
2022-08-22T14:49:58.328Z,100135.16
2022-08-22T14:52:34.438Z,100139.69
2022-08-22T14:55:23.860Z,100137.53
2022-08-22T14:58:18.467Z,100132.50
2022-08-22T15:00:56.534Z,100128.25
2022-08-22T15:03:32.336Z,100131.25
2022-08-22T15:06:07.974Z,100111.94
2022-08-22T15:08:49.278Z,100117.53
2022-08-22T15:11:20.758Z,100116.47
2022-08-22T15:14:25.836Z,100100.47
2022-08-22T15:16:57.254Z,100114.28
2022-08-22T15:19:41.216Z,100116.91
2022-08-22T15:22:17.330Z,100108.44
2022-08-22T15:25:02.771Z,100088.81
2022-08-22T15:27:32.273Z,100099.97
2022-08-22T15:30:02.832Z,100096.28
2022-08-22T15:32:31.965Z,100107.34
2022-08-22T15:35:17.784Z,100098.66
2022-08-22T15:37:59.954Z,100108.88
2022-08-22T15:40:40.814Z,100093.63
2022-08-22T15:43:35.049Z,100111.88
2022-08-22T15:46:17.832Z,100091.66
2022-08-22T15:49:03.168Z,100100.97
2022-08-22T15:51:43.370Z,100094.91
2022-08-22T15:54:25.582Z,100104.81
2022-08-22T15:56:52.930Z,100092.53
2022-08-22T15:59:53.707Z,100098.19
2022-08-22T16:02:38.684Z,100089.69
2022-08-22T16:05:11.552Z,100092.84
2022-08-22T16:07:49.579Z,100096.22
2022-08-22T16:10:22.281Z,100099.47
2022-08-22T16:13:25.997Z,100091.94
2022-08-22T16:15:59.198Z,100088.56
2022-08-22T16:18:39.357Z,100090.91
2022-08-22T16:21:18.150Z,100102.59
2022-08-22T16:23:54.090Z,100098.72
2022-08-22T16:26:44.208Z,100092.47
2022-08-22T16:29:13.664Z,100095.22
2022-08-22T16:31:44.425Z,100096.59
2022-08-22T16:34:17.057Z,100101.78
2022-08-22T16:37:08.136Z,100102.00
2022-08-22T16:39:41.108Z,100107.91
2022-08-22T16:42:23.040Z,100113.09
2022-08-22T16:45:11.671Z,100110.41
2022-08-22T16:47:58.378Z,100102.13
2022-08-22T16:50:31.327Z,100104.38
2022-08-22T16:53:05.265Z,100111.09
2022-08-22T16:55:32.666Z,100113.38
2022-08-22T16:58:06.995Z,100114.00
2022-08-22T17:00:36.636Z,100109.63
2022-08-22T17:03:19.489Z,100103.34
2022-08-22T17:05:52.265Z,100116.97
2022-08-22T17:08:40.693Z,100111.50
2022-08-22T17:11:35.341Z,100098.81
2022-08-22T17:14:20.393Z,100108.25
2022-08-22T17:16:49.755Z,100112.81
2022-08-22T17:19:59.096Z,100104.53
2022-08-22T17:22:43.268Z,100106.31
2022-08-22T17:25:22.146Z,100102.56
2022-08-22T17:28:03.267Z,100102.00
2022-08-22T17:30:46.079Z,100114.53
2022-08-22T17:33:43.210Z,100108.94
2022-08-22T17:36:26.677Z,100110.72
2022-08-22T17:39:00.017Z,100114.72
2022-08-22T17:41:45.154Z,100107.88
2022-08-22T17:44:30.210Z,100111.59
2022-08-22T17:47:08.674Z,100112.78
2022-08-22T17:49:35.228Z,100119.22
2022-08-22T17:52:21.886Z,100120.41
2022-08-22T17:54:56.978Z,100117.38
2022-08-22T17:57:23.565Z,100127.63
2022-08-22T18:00:15.470Z,100124.06
2022-08-22T18:02:57.600Z,100119.38
2022-08-22T18:05:31.988Z,100131.84
2022-08-22T18:11:29.310Z,100131.06
2022-08-22T18:13:58.674Z,100138.56
2022-08-22T18:16:37.945Z,100145.75
2022-08-22T18:19:29.169Z,100145.75
2022-08-22T18:22:33.593Z,100149.63
2022-08-22T18:25:28.801Z,100152.97
2022-08-22T18:28:00.113Z,100150.19
2022-08-22T18:30:37.006Z,100148.28
2022-08-22T18:33:25.523Z,100155.47
2022-08-22T18:36:01.073Z,100170.13
2022-08-22T18:38:52.533Z,100173.97
2022-08-22T18:41:19.149Z,100184.75
2022-08-22T18:43:50.903Z,100180.00
2022-08-22T18:46:33.041Z,100190.47
2022-08-22T18:49:19.883Z,100191.22
2022-08-22T18:52:08.530Z,100200.03
2022-08-22T18:54:58.853Z,100205.47
2022-08-22T18:58:24.207Z,100191.63
2022-08-22T19:01:07.471Z,100207.06
2022-08-22T19:03:52.308Z,100203.78
2022-08-22T19:06:37.712Z,100214.00
2022-08-22T19:09:20.105Z,100217.00
2022-08-22T19:12:16.298Z,100217.22
2022-08-22T19:15:17.016Z,100221.53
2022-08-22T19:17:58.763Z,100223.56
2022-08-22T19:20:50.717Z,100229.41
2022-08-22T19:23:41.739Z,100230.31
2022-08-22T19:26:35.016Z,100230.16
2022-08-22T19:29:16.586Z,100241.22
2022-08-22T19:31:50.432Z,100239.59
2022-08-22T19:34:26.079Z,100242.22
2022-08-22T19:37:30.879Z,100239.78
2022-08-22T19:40:07.310Z,100239.03
2022-08-22T19:42:40.156Z,100255.19
2022-08-22T19:45:07.042Z,100250.06
2022-08-22T19:47:37.849Z,100238.22
2022-08-22T19:50:16.713Z,100256.72
2022-08-22T19:52:56.870Z,100260.00
2022-08-22T19:55:38.783Z,100265.13
2022-08-22T19:58:13.064Z,100268.72
2022-08-22T20:01:06.294Z,100268.25
2022-08-22T20:03:54.324Z,100272.75
2022-08-22T20:06:40.799Z,100281.09
2022-08-22T20:09:13.744Z,100282.50
2022-08-22T20:11:48.305Z,100279.22
2022-08-22T20:14:30.280Z,100285.09
2022-08-22T20:17:33.825Z,100290.59
2022-08-22T20:20:24.059Z,100285.16
2022-08-22T20:23:22.972Z,100283.28
2022-08-22T20:25:52.915Z,100284.97
2022-08-22T20:28:41.201Z,100288.19
2022-08-22T20:31:25.875Z,100291.53
2022-08-22T20:33:58.893Z,100286.53
2022-08-22T20:36:27.620Z,100287.13
2022-08-22T20:39:01.860Z,100283.22
2022-08-22T20:41:39.790Z,100301.06
2022-08-22T20:44:20.093Z,100302.41
2022-08-22T20:46:46.868Z,100305.16
2022-08-22T20:49:28.607Z,100316.81
2022-08-22T20:52:11.539Z,100311.06
2022-08-22T20:54:41.045Z,100319.97
2022-08-22T20:57:19.375Z,100308.13
2022-08-22T20:59:53.827Z,100315.88
2022-08-22T21:02:39.333Z,100321.22
2022-08-22T21:05:21.302Z,100317.00
2022-08-22T21:08:02.337Z,100329.06
2022-08-22T21:10:49.507Z,100305.22
2022-08-22T21:13:19.774Z,100325.25
2022-08-22T21:15:52.873Z,100327.31
2022-08-22T21:18:38.129Z,100326.22
2022-08-22T21:21:18.254Z,100320.22
2022-08-22T21:24:07.801Z,100335.28
2022-08-22T21:26:51.713Z,100333.44
2022-08-22T21:29:23.401Z,100329.53
2022-08-22T21:32:04.555Z,100329.69
2022-08-22T21:34:41.477Z,100324.34
2022-08-22T21:37:12.480Z,100332.44
2022-08-22T21:39:46.076Z,100333.63
2022-08-22T21:42:23.835Z,100331.84
2022-08-22T21:45:09.414Z,100334.47
2022-08-22T21:47:41.513Z,100333.88
2022-08-22T21:50:23.580Z,100340.22
2022-08-22T21:52:56.351Z,100344.19
2022-08-22T21:55:34.482Z,100337.03
2022-08-22T21:58:35.962Z,100343.50
2022-08-22T22:01:30.375Z,100347.28
2022-08-22T22:04:01.198Z,100332.75
2022-08-22T22:06:28.059Z,100342.03
2022-08-22T22:08:55.424Z,100347.53
2022-08-22T22:11:22.195Z,100352.56
2022-08-22T22:13:49.063Z,100355.16
2022-08-22T22:16:56.773Z,100349.09
2022-08-22T22:19:23.647Z,100348.38
2022-08-22T22:21:50.206Z,100361.25
2022-08-22T22:24:16.772Z,100361.38
2022-08-22T22:26:43.377Z,100362.91
2022-08-22T22:29:10.831Z,100373.06
2022-08-22T22:31:37.442Z,100368.91
2022-08-22T22:34:04.109Z,100366.63
2022-08-22T22:36:30.908Z,100361.84
2022-08-22T22:38:57.691Z,100366.25
2022-08-22T22:41:25.655Z,100359.81
2022-08-22T22:43:53.854Z,100370.31
2022-08-22T22:46:21.734Z,100370.44
2022-08-22T22:48:48.454Z,100368.16
2022-08-22T22:51:15.285Z,100361.47
2022-08-22T22:53:42.696Z,100373.88
2022-08-22T22:56:13.928Z,100378.53
2022-08-22T22:58:41.107Z,100381.75
2022-08-22T23:01:14.294Z,100378.53
2022-08-22T23:03:41.776Z,100374.47
2022-08-22T23:06:19.312Z,100382.22
2022-08-22T23:08:47.009Z,100381.63
2022-08-22T23:11:16.815Z,100377.69
2022-08-22T23:13:43.558Z,100381.56
2022-08-22T23:16:13.853Z,100386.19
2022-08-22T23:18:41.976Z,100381.03
2022-08-22T23:21:13.179Z,100391.03
2022-08-22T23:23:40.145Z,100391.50
2022-08-22T23:26:07.458Z,100386.94
2022-08-22T23:28:34.218Z,100391.97
2022-08-22T23:31:15.076Z,100392.56
2022-08-22T23:33:42.582Z,100397.06
2022-08-22T23:36:16.469Z,100398.81
2022-08-22T23:38:44.123Z,100383.88
2022-08-22T23:41:12.955Z,100392.78
2022-08-22T23:43:45.781Z,100393.47
2022-08-22T23:46:14.378Z,100397.91
2022-08-22T23:48:41.860Z,100385.25
2022-08-22T23:51:10.742Z,100390.88
2022-08-22T23:53:38.213Z,100390.41
2022-08-22T23:56:19.220Z,100390.81
2022-08-22T23:58:46.796Z,100386.84
